Time;durP1;ratioP1;P1;durP2;ratioP2;P2;SDS_P1;SDS_P2;PMS_P1;PMS_P2;Temp;Humidity;BMP_temperature;BMP_pressure;BME280_temperature;BME280_humidity;BME280_pressure;Samples;Min_cycle;Max_cycle;Signal;HPM_P1;HPM_P2
2022/10/17 00:02:00;;;;;;;11.60;5.57;;;11.80;99.90;;;;;;4966043;28;20051;-53
2022/10/17 00:04:26;;;;;;;12.35;5.40;;;11.70;99.90;;;;;;4948490;28;20050;-55
2022/10/17 00:06:52;;;;;;;15.68;5.78;;;11.80;99.90;;;;;;4965118;28;20062;-56
2022/10/17 00:09:17;;;;;;;10.13;5.03;;;11.80;99.90;;;;;;4964877;28;20046;-51
2022/10/17 00:11:43;;;;;;;13.70;5.63;;;12.00;99.90;;;;;;4966104;28;20422;-55
2022/10/17 00:14:08;;;;;;;12.20;5.38;;;11.90;99.90;;;;;;4964569;28;20039;-52
2022/10/17 00:16:36;;;;;;;11.77;4.60;;;12.10;99.90;;;;;;4966096;28;20050;-55
2022/10/17 00:19:04;;;;;;;14.07;4.97;;;11.90;99.90;;;;;;4965427;28;20122;-55
2022/10/17 00:21:30;;;;;;;11.20;4.72;;;12.10;99.90;;;;;;4965976;28;20061;-54
2022/10/17 00:23:56;;;;;;;10.25;4.30;;;12.10;99.90;;;;;;4963901;28;20050;-55
2022/10/17 00:26:22;;;;;;;10.93;4.28;;;12.20;99.90;;;;;;4965138;28;20054;-55
2022/10/17 00:28:49;;;;;;;10.85;3.88;;;12.10;99.90;;;;;;4947049;28;20055;-55
2022/10/17 00:31:16;;;;;;;10.30;4.03;;;12.00;99.90;;;;;;4964623;28;20150;-56
2022/10/17 00:33:43;;;;;;;12.68;3.95;;;12.20;99.90;;;;;;4965365;28;20068;-55
2022/10/17 00:36:13;;;;;;;11.23;4.30;;;12.20;99.90;;;;;;4947645;28;20046;-55
2022/10/17 00:38:40;;;;;;;11.57;4.10;;;12.10;99.90;;;;;;4965233;28;20046;-56
2022/10/17 00:41:08;;;;;;;9.82;4.38;;;12.10;99.90;;;;;;4964888;28;20974;-55
2022/10/17 00:43:49;;;;;;;12.63;3.97;;;12.00;99.90;;;;;;4965098;28;20049;-54
2022/10/17 00:46:14;;;;;;;10.70;4.32;;;12.10;99.90;;;;;;4963985;28;20061;-56
2022/10/17 00:48:40;;;;;;;10.88;4.13;;;12.30;99.90;;;;;;4965116;28;20039;-54
2022/10/17 00:51:06;;;;;;;11.23;4.32;;;12.20;99.90;;;;;;4947850;28;20106;-55
2022/10/17 00:53:33;;;;;;;11.13;4.88;;;12.20;99.90;;;;;;4964707;28;20130;-55
2022/10/17 00:56:00;;;;;;;10.80;4.53;;;12.20;99.90;;;;;;4965372;28;20442;-55
2022/10/17 00:58:25;;;;;;;10.57;5.07;;;12.40;99.90;;;;;;4965285;28;20047;-55
2022/10/17 01:00:51;;;;;;;11.82;4.97;;;12.40;99.90;;;;;;4965301;28;20050;-54
2022/10/17 01:03:17;;;;;;;10.02;4.95;;;12.30;99.90;;;;;;4963289;28;20113;-54
2022/10/17 01:05:43;;;;;;;10.82;5.10;;;12.40;99.90;;;;;;4965436;28;20055;-54
2022/10/17 01:08:09;;;;;;;12.75;5.43;;;12.30;99.90;;;;;;4964262;28;20466;-56
2022/10/17 01:10:49;;;;;;;13.05;5.40;;;12.30;99.90;;;;;;4964294;28;20039;-54
2022/10/17 01:13:28;;;;;;;10.55;5.13;;;12.50;99.90;;;;;;4964316;28;20442;-56
2022/10/17 01:16:40;;;;;;;13.05;5.30;;;12.30;99.90;;;;;;4965488;28;20054;-54
2022/10/17 01:19:17;;;;;;;11.90;5.45;;;12.40;99.90;;;;;;4923414;29;20134;-56
2022/10/17 01:21:55;;;;;;;11.88;6.07;;;12.50;99.90;;;;;;4961558;28;20086;-54
2022/10/17 01:24:45;;;;;;;9.55;5.63;;;12.30;99.90;;;;;;4963459;28;20084;-53
2022/10/17 01:27:40;;;;;;;11.60;5.35;;;12.50;99.90;;;;;;4964280;28;20127;-55
2022/10/17 01:30:33;;;;;;;11.70;5.32;;;12.30;99.90;;;;;;4963771;28;20047;-55
2022/10/17 01:33:07;;;;;;;13.13;5.70;;;12.50;99.90;;;;;;4964520;28;20062;-54
2022/10/17 01:35:41;;;;;;;9.75;5.68;;;12.50;99.90;;;;;;4963679;28;20093;-56
2022/10/17 01:38:22;;;;;;;9.32;5.90;;;12.40;99.90;;;;;;4946697;28;20129;-56
2022/10/17 01:41:02;;;;;;;10.80;5.88;;;12.50;99.90;;;;;;4964105;28;20039;-54
2022/10/17 01:43:45;;;;;;;11.95;5.55;;;12.50;99.90;;;;;;4964841;28;20039;-54
2022/10/17 01:46:32;;;;;;;14.27;6.00;;;12.50;99.90;;;;;;4963566;28;20129;-55
2022/10/17 01:49:00;;;;;;;12.25;5.85;;;12.40;99.90;;;;;;4964776;28;20076;-56
2022/10/17 01:51:40;;;;;;;10.48;6.05;;;12.40;99.90;;;;;;4963328;28;20058;-56
2022/10/17 01:54:31;;;;;;;11.95;6.45;;;12.50;99.90;;;;;;4963567;28;20086;-55
2022/10/17 01:57:00;;;;;;;12.98;6.68;;;12.50;99.90;;;;;;4965214;28;20039;-55
2022/10/17 01:59:33;;;;;;;10.30;6.60;;;12.40;99.90;;;;;;4962942;28;20130;-55
2022/10/17 02:02:00;;;;;;;11.45;6.07;;;12.40;99.90;;;;;;4964287;28;20475;-54
2022/10/17 02:04:26;;;;;;;10.50;6.45;;;12.50;99.90;;;;;;4963466;28;20047;-56
2022/10/17 02:06:52;;;;;;;13.40;6.55;;;12.40;99.90;;;;;;4946981;28;20061;-54
2022/10/17 02:09:25;;;;;;;14.52;7.15;;;12.40;99.90;;;;;;4963150;28;20039;-55
2022/10/17 02:12:26;;;;;;;9.13;7.03;;;12.60;99.90;;;;;;4963093;28;20465;-55
2022/10/17 02:15:22;;;;;;;12.23;6.50;;;12.60;99.90;;;;;;4963369;28;20296;-56
2022/10/17 02:17:54;;;;;;;12.73;6.25;;;12.40;99.90;;;;;;4964211;28;20055;-54
2022/10/17 02:20:33;;;;;;;10.65;6.82;;;12.30;99.90;;;;;;4962817;28;20398;-55
2022/10/17 02:23:20;;;;;;;12.10;6.75;;;12.50;99.90;;;;;;4963277;28;20146;-55
2022/10/17 02:26:05;;;;;;;11.30;6.60;;;12.40;99.90;;;;;;4963921;28;20066;-56
2022/10/17 02:28:45;;;;;;;15.75;7.20;;;12.30;99.90;;;;;;4963397;28;20406;-56
2022/10/17 02:31:40;;;;;;;11.35;7.00;;;12.30;99.90;;;;;;4963533;28;20432;-53
2022/10/17 02:34:12;;;;;;;13.27;7.50;;;12.40;99.90;;;;;;4962986;28;20097;-55
2022/10/17 02:36:47;;;;;;;10.65;6.93;;;12.40;99.90;;;;;;4963723;28;20050;-55
2022/10/17 02:39:15;;;;;;;15.43;7.32;;;12.30;99.90;;;;;;4963135;28;20046;-55
2022/10/17 02:41:41;;;;;;;10.88;6.85;;;12.30;99.90;;;;;;4962698;28;20122;-55
2022/10/17 02:44:08;;;;;;;11.75;7.43;;;12.40;99.90;;;;;;4964145;28;20050;-55
2022/10/17 02:46:37;;;;;;;11.93;7.47;;;12.40;99.90;;;;;;4945951;28;20061;-55
2022/10/17 02:49:15;;;;;;;10.27;7.10;;;12.40;99.90;;;;;;4962761;28;20130;-55
2022/10/17 02:52:11;;;;;;;13.93;8.13;;;12.30;99.90;;;;;;4965693;28;20076;-53
2022/10/17 02:55:02;;;;;;;9.68;7.55;;;12.20;99.90;;;;;;4965991;28;20524;-53
2022/10/17 02:57:36;;;;;;;10.05;8.32;;;12.40;99.90;;;;;;4967695;28;20097;-55
2022/10/17 03:00:06;;;;;;;10.35;7.88;;;12.40;99.90;;;;;;4966293;28;20125;-55
2022/10/17 03:02:43;;;;;;;11.48;8.63;;;12.30;99.90;;;;;;4967060;28;20043;-57
2022/10/17 03:05:10;;;;;;;10.85;8.43;;;12.20;99.90;;;;;;4965694;28;20059;-55
2022/10/17 03:07:36;;;;;;;13.27;8.60;;;12.40;99.90;;;;;;4966951;28;20618;-55
2022/10/17 03:10:03;;;;;;;13.65;9.13;;;12.40;99.90;;;;;;4966270;28;20041;-56
2022/10/17 03:12:29;;;;;;;11.77;8.80;;;12.50;99.90;;;;;;4966359;28;20109;-54
2022/10/17 03:14:54;;;;;;;15.13;9.38;;;12.50;99.90;;;;;;4967021;28;20050;-55
2022/10/17 03:17:20;;;;;;;12.15;8.77;;;12.50;99.90;;;;;;4966412;28;20046;-55
2022/10/17 03:19:45;;;;;;;13.52;8.77;;;12.40;99.90;;;;;;4966982;28;20042;-55
2022/10/17 03:22:11;;;;;;;11.40;9.20;;;12.40;99.90;;;;;;4966251;28;20050;-55
2022/10/17 03:24:37;;;;;;;17.60;9.38;;;12.50;99.90;;;;;;4965956;28;20541;-55
2022/10/17 03:27:02;;;;;;;12.02;8.93;;;12.30;99.90;;;;;;4965688;28;20054;-56
2022/10/17 03:29:28;;;;;;;14.43;9.95;;;12.30;99.90;;;;;;4966410;28;20122;-54
2022/10/17 03:31:54;;;;;;;13.40;9.95;;;12.20;99.90;;;;;;4965894;28;20045;-56
2022/10/17 03:34:19;;;;;;;13.35;9.95;;;12.30;99.90;;;;;;4966126;28;20039;-55
2022/10/17 03:36:45;;;;;;;10.88;9.65;;;12.30;99.90;;;;;;4966863;28;20102;-55
2022/10/17 03:39:11;;;;;;;13.27;10.23;;;12.10;99.90;;;;;;4964642;28;20086;-56
2022/10/17 03:41:37;;;;;;;14.35;10.65;;;12.10;99.90;;;;;;4965864;28;20043;-55
2022/10/17 03:44:02;;;;;;;13.05;10.10;;;12.30;99.90;;;;;;4948754;28;20102;-55
2022/10/17 03:46:28;;;;;;;13.40;10.32;;;12.30;99.90;;;;;;4966366;28;20053;-55
2022/10/17 03:48:54;;;;;;;12.75;10.35;;;12.10;99.90;;;;;;4948013;28;20049;-55
2022/10/17 03:51:20;;;;;;;12.45;10.88;;;12.30;99.90;;;;;;4965568;28;20129;-55
2022/10/17 03:53:45;;;;;;;12.65;10.48;;;12.10;99.90;;;;;;4963489;28;20068;-54
2022/10/17 03:56:17;;;;;;;14.95;10.45;;;12.00;99.90;;;;;;4964098;28;20042;-55
2022/10/17 03:58:43;;;;;;;16.52;11.15;;;12.20;99.90;;;;;;4965861;28;20101;-55
2022/10/17 04:01:12;;;;;;;12.60;10.60;;;12.10;99.90;;;;;;4965078;28;20051;-54
2022/10/17 04:03:38;;;;;;;13.05;11.10;;;12.20;99.90;;;;;;4965456;28;20043;-53
2022/10/17 04:06:05;;;;;;;13.30;11.00;;;12.10;99.90;;;;;;4941528;28;20049;-54
2022/10/17 04:08:32;;;;;;;14.88;11.30;;;12.20;99.90;;;;;;4964777;28;20046;-55
2022/10/17 04:10:58;;;;;;;12.43;11.05;;;12.10;99.90;;;;;;4965074;28;20105;-55
2022/10/17 04:13:24;;;;;;;12.77;11.43;;;12.30;99.90;;;;;;4947659;28;20054;-54
2022/10/17 04:15:58;;;;;;;12.98;11.18;;;12.30;99.90;;;;;;4965874;28;20054;-54
2022/10/17 04:18:24;;;;;;;14.90;12.00;;;12.20;99.90;;;;;;4965979;28;20050;-55
2022/10/17 04:20:50;;;;;;;13.88;11.23;;;12.20;99.90;;;;;;4948509;28;20058;-54
2022/10/17 04:23:15;;;;;;;15.02;10.88;;;12.20;99.90;;;;;;4964429;28;20057;-55
2022/10/17 04:25:41;;;;;;;13.23;11.40;;;12.20;99.90;;;;;;4965669;28;20108;-56
2022/10/17 04:28:07;;;;;;;15.05;12.23;;;12.10;99.90;;;;;;4965485;28;20049;-56
2022/10/17 04:30:32;;;;;;;17.15;13.35;;;12.10;99.90;;;;;;4964820;28;20096;-54
2022/10/17 04:32:58;;;;;;;19.45;12.93;;;12.20;99.90;;;;;;4965599;28;20042;-56
2022/10/17 04:35:24;;;;;;;15.40;13.10;;;12.20;99.90;;;;;;4964847;28;20522;-56
2022/10/17 04:37:49;;;;;;;16.75;13.68;;;12.20;99.90;;;;;;4963947;28;20600;-56
2022/10/17 04:40:15;;;;;;;17.27;14.35;;;12.40;99.90;;;;;;4964403;28;20049;-54
2022/10/17 04:42:41;;;;;;;20.65;15.35;;;12.30;99.90;;;;;;4965035;28;20478;-56
2022/10/17 04:45:07;;;;;;;25.85;16.63;;;12.40;99.90;;;;;;4964921;28;20100;-57
2022/10/17 04:47:32;;;;;;;24.27;16.35;;;12.30;99.90;;;;;;4964703;28;20076;-55
2022/10/17 04:49:58;;;;;;;26.00;17.20;;;12.50;99.90;;;;;;4965053;28;20610;-54
2022/10/17 04:52:24;;;;;;;25.85;17.27;;;12.60;99.90;;;;;;4963078;28;20497;-55
2022/10/17 04:54:50;;;;;;;24.00;16.27;;;12.60;99.90;;;;;;4964430;28;20119;-55
2022/10/17 04:57:17;;;;;;;26.27;17.17;;;12.70;99.90;;;;;;4963889;28;20035;-55
2022/10/17 04:59:43;;;;;;;24.17;15.82;;;12.70;99.90;;;;;;4965572;28;20039;-55
2022/10/17 05:02:08;;;;;;;27.05;15.63;;;12.80;99.90;;;;;;4964851;28;20656;-54
2022/10/17 05:04:34;;;;;;;21.67;15.63;;;12.90;99.90;;;;;;4964045;28;20031;-55
2022/10/17 05:06:59;;;;;;;26.23;15.88;;;12.70;99.90;;;;;;4965324;28;20457;-55
2022/10/17 05:09:26;;;;;;;21.33;14.60;;;12.90;99.90;;;;;;4964331;28;20653;-55
2022/10/17 05:11:52;;;;;;;22.63;15.10;;;12.90;99.90;;;;;;4965240;28;20066;-55
2022/10/17 05:14:17;;;;;;;18.20;14.15;;;13.00;99.90;;;;;;4963279;28;20039;-55
2022/10/17 05:16:43;;;;;;;17.30;13.27;;;13.10;99.90;;;;;;4964479;28;20038;-54
2022/10/17 05:19:10;;;;;;;16.52;13.07;;;13.20;99.90;;;;;;4963618;28;20541;-54
2022/10/17 05:21:36;;;;;;;15.23;13.38;;;13.30;99.90;;;;;;4964433;28;20506;-55
2022/10/17 05:24:07;;;;;;;13.18;11.77;;;13.40;99.90;;;;;;4963739;28;20142;-56
2022/10/17 05:26:33;;;;;;;14.95;12.30;;;13.40;99.90;;;;;;4964376;28;20042;-56
2022/10/17 05:29:01;;;;;;;13.35;12.02;;;13.50;99.90;;;;;;4965008;28;20063;-52
2022/10/17 05:31:28;;;;;;;13.32;11.57;;;13.30;99.90;;;;;;4963760;28;20065;-56
2022/10/17 05:33:54;;;;;;;18.30;12.75;;;13.60;99.90;;;;;;4964760;28;20046;-54
2022/10/17 05:36:20;;;;;;;13.88;12.38;;;13.60;99.90;;;;;;4963949;28;20097;-54
2022/10/17 05:38:50;;;;;;;14.02;12.48;;;13.40;99.90;;;;;;4962752;28;20059;-56
2022/10/17 05:41:15;;;;;;;14.15;12.65;;;13.30;99.90;;;;;;4964321;28;20438;-55
2022/10/17 05:43:41;;;;;;;13.80;11.98;;;13.30;99.90;;;;;;4964134;28;20047;-55
2022/10/17 05:46:07;;;;;;;13.97;12.00;;;13.40;99.90;;;;;;4963995;28;20039;-56
2022/10/17 05:48:33;;;;;;;14.32;12.25;;;13.40;99.90;;;;;;4963506;28;20240;-56
2022/10/17 05:51:01;;;;;;;13.73;12.10;;;13.60;99.90;;;;;;4964870;28;20050;-56
2022/10/17 05:53:30;;;;;;;14.15;12.13;;;13.50;99.90;;;;;;4963785;28;20410;-56
2022/10/17 05:55:58;;;;;;;14.63;13.00;;;13.50;99.90;;;;;;4963321;28;20055;-55
2022/10/17 05:58:24;;;;;;;15.82;12.82;;;13.40;99.90;;;;;;4964224;28;20046;-55
2022/10/17 06:00:49;;;;;;;13.95;12.45;;;13.50;99.90;;;;;;4964665;28;20043;-55
2022/10/17 06:03:15;;;;;;;18.42;12.40;;;13.40;99.90;;;;;;4963738;28;20053;-54
2022/10/17 06:05:41;;;;;;;14.48;12.60;;;13.50;99.90;;;;;;4963376;28;20050;-56
2022/10/17 06:08:06;;;;;;;14.85;12.43;;;13.50;99.90;;;;;;4963328;28;20055;-56
2022/10/17 06:10:32;;;;;;;14.82;12.82;;;13.40;99.90;;;;;;4964143;28;20038;-51
2022/10/17 06:12:57;;;;;;;15.43;12.55;;;13.40;99.90;;;;;;4964256;28;20120;-55
2022/10/17 06:15:23;;;;;;;13.60;11.93;;;13.50;99.90;;;;;;4963796;28;20665;-55
2022/10/17 06:17:49;;;;;;;14.23;12.73;;;13.70;99.90;;;;;;4964074;28;20038;-55
2022/10/17 06:20:14;;;;;;;15.15;12.82;;;13.40;99.90;;;;;;4964128;28;20105;-56
2022/10/17 06:22:40;;;;;;;13.18;11.73;;;13.50;99.90;;;;;;4962717;28;20093;-55
2022/10/17 06:25:06;;;;;;;14.00;12.07;;;13.60;99.90;;;;;;4965027;28;20093;-55
2022/10/17 06:27:31;;;;;;;15.55;13.10;;;13.60;99.90;;;;;;4968595;28;20062;-55
2022/10/17 06:29:57;;;;;;;14.55;13.05;;;13.80;99.90;;;;;;4968487;28;20126;-54
2022/10/17 06:32:23;;;;;;;14.63;12.95;;;13.80;99.90;;;;;;4966613;28;20113;-55
2022/10/17 06:34:48;;;;;;;15.07;12.13;;;13.70;99.90;;;;;;4968708;28;20401;-56
2022/10/17 06:37:14;;;;;;;15.65;11.75;;;13.70;99.90;;;;;;4968500;28;20043;-56
2022/10/17 06:39:40;;;;;;;15.35;13.80;;;13.80;99.90;;;;;;4967152;28;20542;-55
2022/10/17 06:42:05;;;;;;;15.65;13.05;;;13.80;99.90;;;;;;4967713;28;20047;-56
2022/10/17 06:44:31;;;;;;;18.15;14.07;;;14.00;99.90;;;;;;4968123;28;20031;-56
2022/10/17 06:46:58;;;;;;;15.98;13.95;;;14.10;99.90;;;;;;4967957;28;20078;-55
2022/10/17 06:49:24;;;;;;;16.88;13.45;;;14.10;99.90;;;;;;4966267;28;20628;-54
2022/10/17 06:51:50;;;;;;;18.92;14.75;;;14.00;99.90;;;;;;4967852;28;20081;-56
2022/10/17 06:54:15;;;;;;;14.27;10.80;;;14.10;99.90;;;;;;4967189;28;20145;-56
2022/10/17 06:56:41;;;;;;;18.17;13.70;;;14.20;99.90;;;;;;4967512;28;20518;-55
2022/10/17 06:59:08;;;;;;;18.33;13.57;;;14.10;99.90;;;;;;4967479;28;20053;-56
2022/10/17 07:01:34;;;;;;;16.02;13.77;;;14.10;99.90;;;;;;4968034;28;20054;-55
2022/10/17 07:04:00;;;;;;;15.60;13.07;;;14.10;99.90;;;;;;4967803;28;20053;-54
2022/10/17 07:06:26;;;;;;;16.92;14.15;;;14.20;99.90;;;;;;4966065;28;20133;-55
2022/10/17 07:08:52;;;;;;;15.73;12.95;;;14.40;99.90;;;;;;4967356;28;20513;-55
2022/10/17 07:11:20;;;;;;;16.73;13.20;;;14.20;99.90;;;;;;4949571;28;20070;-55
2022/10/17 07:13:46;;;;;;;16.27;13.25;;;14.30;99.90;;;;;;4967146;28;20122;-56
2022/10/17 07:16:13;;;;;;;15.93;13.30;;;14.50;99.90;;;;;;4966995;28;20138;-53
2022/10/17 07:18:39;;;;;;;14.95;12.57;;;14.30;99.90;;;;;;4950636;28;20756;-55
2022/10/17 07:21:07;;;;;;;14.80;13.15;;;14.40;99.90;;;;;;4967233;28;20043;-55
2022/10/17 07:23:35;;;;;;;16.90;12.88;;;14.40;99.90;;;;;;4965269;28;20053;-56
2022/10/17 07:26:06;;;;;;;14.55;12.23;;;14.60;99.90;;;;;;4950210;28;20050;-55
2022/10/17 07:28:33;;;;;;;13.90;11.68;;;14.50;99.90;;;;;;4967406;28;20047;-54
2022/10/17 07:31:06;;;;;;;14.82;12.63;;;14.50;99.90;;;;;;4966670;28;20042;-55
2022/10/17 07:33:33;;;;;;;13.90;12.43;;;14.60;99.90;;;;;;4967105;28;20038;-56
2022/10/17 07:35:59;;;;;;;16.88;13.02;;;14.70;99.90;;;;;;4967660;28;20098;-56
2022/10/17 07:38:25;;;;;;;15.32;10.85;;;14.80;99.90;;;;;;4965033;28;20043;-55
2022/10/17 07:40:56;;;;;;;16.40;13.05;;;15.00;99.90;;;;;;4967528;28;20515;-55
2022/10/17 07:43:23;;;;;;;16.55;12.52;;;15.10;99.90;;;;;;4965605;28;20054;-54
2022/10/17 07:45:49;;;;;;;14.82;11.07;;;14.90;99.90;;;;;;4966919;28;20053;-56
2022/10/17 07:48:15;;;;;;;16.60;11.77;;;15.00;99.90;;;;;;4966375;28;20042;-55
2022/10/17 07:50:40;;;;;;;14.43;11.82;;;15.20;99.90;;;;;;4967036;28;20047;-55
2022/10/17 07:53:06;;;;;;;15.57;11.05;;;15.20;99.90;;;;;;4965315;28;20111;-56
2022/10/17 07:55:32;;;;;;;11.43;7.40;;;15.30;99.90;;;;;;4963679;28;20171;-55
2022/10/17 07:57:59;;;;;;;12.85;10.48;;;15.20;99.90;;;;;;4961837;28;20043;-54
2022/10/17 08:00:25;;;;;;;14.38;12.18;;;15.40;99.90;;;;;;4981879;28;20078;-56
2022/10/17 08:02:51;;;;;;;18.38;12.80;;;15.40;99.90;;;;;;4964895;28;20048;-56
2022/10/17 08:05:17;;;;;;;16.17;11.77;;;15.30;99.90;;;;;;4965587;28;20117;-56
2022/10/17 08:07:42;;;;;;;13.52;10.88;;;15.50;99.90;;;;;;4965715;28;20042;-54
2022/10/17 08:10:11;;;;;;;15.98;10.55;;;15.50;99.90;;;;;;4965584;28;20093;-55
2022/10/17 08:12:37;;;;;;;13.00;11.27;;;15.50;99.90;;;;;;4959930;28;20047;-53
2022/10/17 08:15:04;;;;;;;14.05;11.25;;;15.80;99.90;;;;;;4963374;28;20081;-54
2022/10/17 08:17:30;;;;;;;13.35;11.13;;;15.50;99.90;;;;;;4966027;28;20054;-54
2022/10/17 08:19:55;;;;;;;12.27;10.32;;;15.60;99.90;;;;;;4965857;28;20425;-54
2022/10/17 08:22:21;;;;;;;13.75;11.10;;;15.70;99.90;;;;;;4964610;28;20621;-53
2022/10/17 08:24:46;;;;;;;15.18;10.13;;;15.80;99.90;;;;;;4965374;28;20055;-54
2022/10/17 08:27:13;;;;;;;12.35;10.23;;;16.10;99.90;;;;;;4965303;28;20051;-53
2022/10/17 08:29:39;;;;;;;8.98;6.93;;;16.00;99.90;;;;;;4965383;28;20094;-54
2022/10/17 08:32:06;;;;;;;12.52;8.88;;;16.30;99.90;;;;;;4966051;28;20047;-55
2022/10/17 08:34:32;;;;;;;11.45;9.60;;;16.20;99.90;;;;;;4965464;28;20105;-54
2022/10/17 08:36:57;;;;;;;17.27;9.93;;;16.20;99.90;;;;;;4965790;28;20051;-55
2022/10/17 08:39:23;;;;;;;12.40;10.25;;;16.30;99.90;;;;;;4964815;28;20421;-54
2022/10/17 08:42:07;;;;;;;13.13;10.35;;;16.50;99.90;;;;;;4965711;28;20050;-54
2022/10/17 08:44:45;;;;;;;11.82;9.70;;;16.50;99.90;;;;;;4965370;28;20039;-55
2022/10/17 08:47:18;;;;;;;14.90;8.80;;;16.60;99.90;;;;;;4947921;28;20090;-54
2022/10/17 08:49:51;;;;;;;13.07;9.15;;;16.40;99.90;;;;;;4947260;28;20043;-55
2022/10/17 08:52:37;;;;;;;11.43;9.63;;;16.60;99.90;;;;;;4963823;28;20038;-57
2022/10/17 08:55:03;;;;;;;13.70;9.73;;;16.70;99.90;;;;;;4964804;28;20050;-66
2022/10/17 08:57:29;;;;;;;13.50;9.85;;;16.70;99.90;;;;;;4964834;28;20082;-65
2022/10/17 08:59:56;;;;;;;11.90;10.15;;;16.70;99.90;;;;;;4948043;28;20098;-65
2022/10/17 09:02:29;;;;;;;12.70;9.38;;;16.90;99.90;;;;;;4964687;28;20824;-66
2022/10/17 09:05:00;;;;;;;10.00;8.82;;;16.60;99.90;;;;;;4963422;28;20130;-66
2022/10/17 09:07:41;;;;;;;10.45;9.10;;;16.90;99.90;;;;;;4964338;28;20401;-65
2022/10/17 09:10:14;;;;;;;9.00;6.70;;;16.90;99.90;;;;;;4964528;28;20383;-66
2022/10/17 09:12:51;;;;;;;9.98;8.80;;;17.10;99.90;;;;;;4965146;28;20050;-66
2022/10/17 09:15:39;;;;;;;11.45;8.75;;;17.00;99.90;;;;;;4947273;28;20050;-66
2022/10/17 09:18:19;;;;;;;10.50;6.85;;;17.20;99.90;;;;;;4964570;28;20113;-65
2022/10/17 09:20:59;;;;;;;12.13;7.60;;;17.10;99.90;;;;;;4964897;28;20058;-66
2022/10/17 09:23:29;;;;;;;10.48;6.10;;;17.00;99.90;;;;;;4961682;28;20117;-66
2022/10/17 09:25:58;;;;;;;10.18;7.80;;;17.20;99.90;;;;;;4964965;28;20046;-66
2022/10/17 09:28:36;;;;;;;8.60;7.18;;;17.10;99.90;;;;;;4963058;28;20053;-65
2022/10/17 09:31:12;;;;;;;9.85;8.00;;;17.30;99.90;;;;;;4964328;28;20413;-67
2022/10/17 09:33:44;;;;;;;11.88;8.90;;;17.30;99.90;;;;;;4963753;28;20140;-66
2022/10/17 09:36:18;;;;;;;10.20;7.65;;;17.30;99.90;;;;;;4963577;28;20202;-66
2022/10/17 09:38:48;;;;;;;12.18;8.60;;;17.10;99.90;;;;;;4963716;28;20043;-66
2022/10/17 09:41:28;;;;;;;12.02;7.05;;;17.10;99.90;;;;;;4963637;28;20136;-66
2022/10/17 09:43:56;;;;;;;11.68;8.30;;;17.10;99.90;;;;;;4964356;28;20538;-67
2022/10/17 09:46:37;;;;;;;14.27;8.80;;;17.20;99.90;;;;;;4946158;28;20042;-63
2022/10/17 09:49:17;;;;;;;12.73;8.90;;;17.40;99.90;;;;;;4963265;28;20509;-64
2022/10/17 09:51:43;;;;;;;12.65;8.68;;;17.20;99.90;;;;;;4962903;28;20046;-63
2022/10/17 09:54:22;;;;;;;9.68;6.90;;;17.20;99.90;;;;;;4963424;28;20077;-63
2022/10/17 09:57:06;;;;;;;12.55;8.88;;;17.20;99.90;;;;;;4964124;28;20112;-63
2022/10/17 09:59:35;;;;;;;11.80;8.32;;;17.30;99.90;;;;;;4963330;28;20047;-63
2022/10/17 10:02:28;;;;;;;11.73;8.35;;;17.20;99.90;;;;;;4964555;28;20118;-65
2022/10/17 10:04:57;;;;;;;14.93;8.75;;;17.10;99.90;;;;;;4960887;28;20057;-63
2022/10/17 10:07:29;;;;;;;12.90;8.00;;;17.00;99.90;;;;;;4936302;28;20646;-63
2022/10/17 10:09:56;;;;;;;9.90;7.32;;;17.00;99.90;;;;;;4963305;28;20051;-63
2022/10/17 10:12:32;;;;;;;12.43;9.25;;;17.00;99.90;;;;;;4963160;28;20430;-62
2022/10/17 10:14:57;;;;;;;11.43;8.27;;;17.20;99.90;;;;;;4946565;28;20429;-62
2022/10/17 10:17:25;;;;;;;11.48;8.55;;;17.30;99.90;;;;;;4962921;28;20062;-62
2022/10/17 10:19:51;;;;;;;10.45;8.82;;;17.10;99.90;;;;;;4952256;28;20488;-62
2022/10/17 10:22:20;;;;;;;11.82;9.48;;;17.10;99.90;;;;;;4961082;28;20058;-62
2022/10/17 10:25:15;;;;;;;12.10;8.93;;;16.80;99.90;;;;;;4962140;28;20086;-62
2022/10/17 10:27:46;;;;;;;11.30;8.77;;;17.00;99.90;;;;;;4963388;28;20138;-63
2022/10/17 10:30:30;;;;;;;14.25;8.80;;;16.90;99.90;;;;;;4962433;28;20050;-62
2022/10/17 10:32:58;;;;;;;13.07;9.23;;;16.70;99.90;;;;;;4963632;28;20047;-63
2022/10/17 10:35:35;;;;;;;12.77;9.73;;;16.60;99.90;;;;;;4963188;28;20054;-63
2022/10/17 10:38:07;;;;;;;13.45;9.90;;;16.60;99.90;;;;;;4962428;28;20109;-62
2022/10/17 10:40:48;;;;;;;12.63;9.82;;;16.60;99.90;;;;;;4963187;28;20068;-63
2022/10/17 10:43:36;;;;;;;13.18;9.60;;;16.60;99.90;;;;;;4962407;28;20043;-62
2022/10/17 10:46:19;;;;;;;23.75;11.10;;;16.70;99.90;;;;;;4945903;28;20409;-63
2022/10/17 10:49:02;;;;;;;13.48;10.38;;;16.70;99.90;;;;;;4962438;28;20189;-63
2022/10/17 10:51:46;;;;;;;14.07;10.05;;;16.50;99.90;;;;;;4963624;28;20063;-63
2022/10/17 10:54:29;;;;;;;11.23;9.55;;;16.50;99.90;;;;;;4962761;28;20717;-63
2022/10/17 10:57:02;;;;;;;10.80;9.38;;;16.40;99.90;;;;;;4963181;28;20053;-63
2022/10/17 10:59:52;;;;;;;12.45;9.18;;;16.60;99.90;;;;;;4963451;28;20049;-62
2022/10/17 11:02:29;;;;;;;13.27;10.45;;;16.60;99.90;;;;;;4963383;28;20051;-63
2022/10/17 11:05:12;;;;;;;15.43;11.45;;;16.30;99.90;;;;;;4963362;28;20374;-62
2022/10/17 11:08:05;;;;;;;14.57;11.45;;;16.30;99.90;;;;;;4963331;28;20063;-62
2022/10/17 11:11:17;;;;;;;15.10;11.13;;;16.40;99.90;;;;;;4961190;28;20158;-63
2022/10/17 11:13:59;;;;;;;16.23;11.88;;;16.30;99.90;;;;;;4956609;28;20062;-63
2022/10/17 11:16:32;;;;;;;15.63;11.10;;;16.30;99.90;;;;;;4966121;28;20047;-63
2022/10/17 11:19:06;;;;;;;17.00;11.53;;;16.30;99.90;;;;;;4967333;28;20109;-63
2022/10/17 11:21:54;;;;;;;12.38;11.07;;;16.30;99.90;;;;;;4966746;28;20118;-63
2022/10/17 11:24:40;;;;;;;15.55;12.00;;;16.30;99.90;;;;;;4948978;28;20480;-62
2022/10/17 11:27:07;;;;;;;14.70;11.93;;;16.20;99.90;;;;;;4948355;28;20081;-63
2022/10/17 11:29:37;;;;;;;17.98;13.25;;;16.20;99.90;;;;;;4948465;28;20050;-62
2022/10/17 11:32:18;;;;;;;16.33;11.90;;;16.30;99.90;;;;;;4966270;28;20043;-62
2022/10/17 11:34:48;;;;;;;17.63;11.75;;;16.20;99.90;;;;;;4964938;28;20082;-62
2022/10/17 11:37:21;;;;;;;15.32;11.73;;;16.30;99.90;;;;;;4964149;28;20069;-62
2022/10/17 11:39:55;;;;;;;14.27;11.63;;;16.30;99.90;;;;;;4949039;28;20054;-63
2022/10/17 11:42:26;;;;;;;16.38;12.88;;;16.20;99.90;;;;;;4966389;28;20078;-62
2022/10/17 11:45:01;;;;;;;18.05;13.68;;;16.20;99.90;;;;;;4949526;28;20098;-62
2022/10/17 11:47:31;;;;;;;18.17;12.43;;;16.30;99.90;;;;;;4965962;28;20046;-62
2022/10/17 11:50:22;;;;;;;16.08;13.13;;;16.20;99.90;;;;;;4966844;28;20042;-63
2022/10/17 11:53:14;;;;;;;19.88;13.13;;;16.40;99.90;;;;;;4965379;28;20085;-63
2022/10/17 11:55:41;;;;;;;17.70;12.88;;;16.30;99.90;;;;;;4962933;28;20148;-62
2022/10/17 11:58:09;;;;;;;18.10;12.98;;;16.40;99.90;;;;;;4965208;28;20422;-63
2022/10/17 12:00:44;;;;;;;14.77;11.75;;;16.20;99.90;;;;;;4966175;28;20129;-63
2022/10/17 12:03:28;;;;;;;18.13;13.38;;;16.30;99.90;;;;;;4966072;28;20054;-63
2022/10/17 12:06:07;;;;;;;21.23;13.73;;;16.40;99.90;;;;;;4948087;28;20081;-63
2022/10/17 12:08:46;;;;;;;19.98;13.82;;;16.30;99.90;;;;;;4965626;28;20058;-63
2022/10/17 12:11:20;;;;;;;15.40;11.02;;;16.30;99.90;;;;;;4965855;28;20089;-63
2022/10/17 12:13:48;;;;;;;16.35;12.88;;;16.30;99.90;;;;;;4965840;28;20051;-63
2022/10/17 12:16:20;;;;;;;15.15;12.88;;;16.20;99.90;;;;;;4964881;28;20051;-63
2022/10/17 12:18:48;;;;;;;17.10;13.55;;;16.20;99.90;;;;;;4965891;28;20053;-63
2022/10/17 12:21:14;;;;;;;19.33;14.13;;;16.20;99.90;;;;;;4965547;28;20051;-62
2022/10/17 12:23:40;;;;;;;17.02;14.20;;;16.40;99.90;;;;;;4964040;28;20058;-63
2022/10/17 12:26:09;;;;;;;17.80;11.93;;;16.30;99.90;;;;;;4965451;28;20133;-63
2022/10/17 12:28:43;;;;;;;16.83;12.85;;;16.20;99.90;;;;;;4965555;28;20282;-68
2022/10/17 12:31:24;;;;;;;16.52;13.60;;;16.30;99.90;;;;;;4964601;28;20046;-63
2022/10/17 12:33:58;;;;;;;15.43;13.63;;;16.30;99.90;;;;;;4965602;28;20050;-62
2022/10/17 12:36:24;;;;;;;;;;;16.40;99.90;;;;;;4947692;28;20403;-63
2022/10/17 12:39:02;;;;;;;15.00;13.38;;;16.30;99.90;;;;;;4965014;28;19929;-63
2022/10/17 12:41:37;;;;;;;14.65;12.15;;;16.20;99.90;;;;;;4947866;28;20097;-63
2022/10/17 12:44:26;;;;;;;13.98;10.55;;;16.30;99.90;;;;;;4947226;28;20106;-63
2022/10/17 12:47:24;;;;;;;16.08;11.18;;;16.50;99.90;;;;;;4961505;28;20719;-63
2022/10/17 12:49:50;;;;;;;13.65;9.77;;;16.50;99.90;;;;;;4964976;28;20442;-63
2022/10/17 12:52:30;;;;;;;10.60;9.00;;;16.60;99.90;;;;;;4964566;28;20055;-63
2022/10/17 12:55:02;;;;;;;9.38;8.15;;;16.60;99.90;;;;;;4965309;28;20077;-63